Terminal Aerodrome Forecast
Issued by NWS

Home | Current Version | Previous Version | Text Only | Print | Product List | Glossary On
Versions: 1 2 3 4 5 6 7 8 9 10 11 12 13 14 15 16 17 18 19 20 21
866
FTUS43 KOAX 251202 CCA
TAFSNY
TAF COR
KSNY 251202Z 2512/2612 28008KT 3/4SM BR OVC003
     FM251330 29012KT P6SM BKN006
     FM251500 29012KT P6SM SKC
     FM252300 32010KT P6SM FEW250
     FM260300 28006KT P6SM SCT250
     FM261000 31006KT P6SM SCT200=

USA.gov is the U.S. government's official web portal to all federal, state and local government web resources and services.